createdAt,value
2018-03-15T00:01:15.344Z,99218.14
2018-03-15T00:03:42.913Z,99214.45
2018-03-15T00:06:10.466Z,99205.33
2018-03-15T00:08:38.099Z,99212.28
2018-03-15T00:11:05.677Z,99210.48
2018-03-15T00:13:33.259Z,99207.28
2018-03-15T00:16:00.818Z,99204.47
2018-03-15T00:18:28.429Z,99207.25
2018-03-15T00:20:56.000Z,99206.23
2018-03-15T00:23:23.553Z,99201.16
2018-03-15T00:25:51.122Z,99200.91
2018-03-15T00:28:18.678Z,99202.86
2018-03-15T00:30:46.306Z,99203.47
2018-03-15T00:33:14.719Z,99199.53
2018-03-15T00:35:42.347Z,99196.42
2018-03-15T00:38:09.906Z,99197.26
2018-03-15T00:40:37.524Z,99188.77
2018-03-15T00:43:05.143Z,99190.41
2018-03-15T00:45:32.710Z,99186.14
2018-03-15T00:48:00.274Z,99190.27
2018-03-15T00:50:27.829Z,99189.59
2018-03-15T00:52:55.394Z,99185.28
2018-03-15T00:55:23.015Z,99194.50
2018-03-15T00:57:50.582Z,99194.47
2018-03-15T01:00:18.151Z,99195.11
2018-03-15T01:02:45.840Z,99199.11
2018-03-15T01:05:13.470Z,99197.72
2018-03-15T01:07:41.053Z,99201.05
2018-03-15T01:10:08.624Z,99197.19
2018-03-15T01:12:36.178Z,99197.64
2018-03-15T01:15:03.742Z,99204.52
2018-03-15T01:17:31.368Z,99197.42
2018-03-15T01:19:58.930Z,99203.31
2018-03-15T01:22:26.484Z,99195.07
2018-03-15T01:24:54.069Z,99197.85
2018-03-15T01:27:21.632Z,99205.16
2018-03-15T01:29:49.302Z,99206.04
2018-03-15T01:32:16.876Z,99215.36
2018-03-15T01:34:44.499Z,99215.36
2018-03-15T01:37:12.124Z,99219.20
2018-03-15T01:39:39.747Z,99223.13
2018-03-15T01:42:07.314Z,99220.61
2018-03-15T01:44:34.873Z,99222.35
2018-03-15T01:47:02.434Z,99220.08
2018-03-15T01:49:30.005Z,99223.78
2018-03-15T01:51:57.576Z,99216.84
2018-03-15T01:54:25.129Z,99218.59
2018-03-15T01:56:52.694Z,99223.70
2018-03-15T01:59:20.250Z,99226.09
2018-03-15T02:01:47.807Z,99226.06
2018-03-15T02:04:15.369Z,99225.53
2018-03-15T02:06:42.926Z,99223.36
2018-03-15T02:09:10.493Z,99225.92
2018-03-15T02:11:38.046Z,99231.80
2018-03-15T02:14:05.717Z,99231.31
2018-03-15T02:16:33.339Z,99235.70
2018-03-15T02:19:00.933Z,99234.77
2018-03-15T02:21:28.486Z,99235.52
2018-03-15T02:23:56.048Z,99242.64
2018-03-15T02:26:23.632Z,99241.39
2018-03-15T02:28:51.189Z,99243.47
2018-03-15T02:31:18.828Z,99245.38
2018-03-15T02:33:46.386Z,99246.55
2018-03-15T02:36:14.003Z,99241.18
2018-03-15T02:38:41.642Z,99246.92
2018-03-15T02:41:09.205Z,99247.94
2018-03-15T02:43:36.777Z,99251.69
2018-03-15T02:46:04.338Z,99250.34
2018-03-15T02:48:31.897Z,99253.61
2018-03-15T02:50:59.460Z,99249.02
2018-03-15T02:53:27.087Z,99251.97
2018-03-15T02:55:54.646Z,99259.07
2018-03-15T02:58:22.206Z,99259.34
2018-03-15T03:00:49.766Z,99259.34
2018-03-15T03:03:17.321Z,99265.16
2018-03-15T03:05:44.891Z,99268.63
2018-03-15T03:08:12.513Z,99273.33
2018-03-15T03:10:40.079Z,99275.98
2018-03-15T03:13:07.635Z,99282.08
2018-03-15T03:15:35.259Z,99280.62
2018-03-15T03:18:02.883Z,99277.40
2018-03-15T03:20:30.515Z,99283.70
2018-03-15T03:22:58.074Z,99285.30
2018-03-15T03:25:25.634Z,99280.25
2018-03-15T03:27:53.260Z,99287.50
2018-03-15T03:30:20.823Z,99285.25
2018-03-15T03:32:48.455Z,99290.78
2018-03-15T03:35:16.079Z,99287.78
2018-03-15T03:37:43.646Z,99292.70
2018-03-15T03:40:11.210Z,99297.31
2018-03-15T03:42:38.789Z,99295.17
2018-03-15T03:45:06.362Z,99298.31
2018-03-15T03:47:33.995Z,99297.06
2018-03-15T03:50:01.638Z,99297.23
2018-03-15T03:52:29.236Z,99300.12
2018-03-15T03:54:56.810Z,99303.69
2018-03-15T03:57:24.388Z,99305.11
2018-03-15T03:59:52.031Z,99311.18
2018-03-15T04:02:19.590Z,99310.98
2018-03-15T04:04:47.166Z,99316.41
2018-03-15T04:07:14.799Z,99318.62
2018-03-15T04:09:42.361Z,99322.89
2018-03-15T04:12:09.930Z,99321.22
2018-03-15T04:14:37.485Z,99324.15
2018-03-15T04:17:05.054Z,99321.59
2018-03-15T04:19:32.678Z,99323.35
2018-03-15T04:22:00.251Z,99330.87
2018-03-15T04:24:27.878Z,99333.42
2018-03-15T04:26:55.445Z,99322.97
2018-03-15T04:29:23.086Z,99333.00
2018-03-15T04:31:50.725Z,99332.25
2018-03-15T04:34:18.301Z,99337.44
2018-03-15T04:36:45.862Z,99338.19
2018-03-15T04:39:13.435Z,99336.27
2018-03-15T04:41:41.070Z,99342.54
2018-03-15T04:44:08.661Z,99347.39
2018-03-15T04:46:36.219Z,99340.83
2018-03-15T04:49:03.849Z,99343.47
2018-03-15T04:51:31.480Z,99344.93
2018-03-15T04:53:59.047Z,99346.27
2018-03-15T04:56:26.614Z,99348.72
2018-03-15T04:58:54.243Z,99357.98
2018-03-15T05:01:21.878Z,99361.86
2018-03-15T05:03:49.442Z,99367.12
2018-03-15T05:06:17.071Z,99364.69
2018-03-15T05:08:44.696Z,99362.77
2018-03-15T05:11:12.262Z,99372.27
2018-03-15T05:13:39.825Z,99370.57
2018-03-15T05:16:07.451Z,99371.03
2018-03-15T05:18:35.022Z,99369.47
2018-03-15T05:21:02.583Z,99378.75
2018-03-15T05:23:30.220Z,99379.72
2018-03-15T05:25:57.881Z,99381.76
2018-03-15T05:28:25.558Z,99382.72
2018-03-15T05:30:53.165Z,99386.32
2018-03-15T05:33:20.786Z,99385.34
2018-03-15T05:35:48.429Z,99392.08
2018-03-15T05:38:15.993Z,99390.60
2018-03-15T05:40:43.565Z,99393.89
2018-03-15T05:43:11.130Z,99398.52
2018-03-15T05:45:38.758Z,99397.50
2018-03-15T05:48:06.323Z,99397.70
2018-03-15T05:50:33.888Z,99400.56
2018-03-15T05:53:01.526Z,99403.36
2018-03-15T05:55:29.090Z,99401.62
2018-03-15T05:57:56.752Z,99403.35
2018-03-15T06:00:24.328Z,99405.95
2018-03-15T06:02:51.954Z,99404.44
2018-03-15T06:05:19.514Z,99410.05
2018-03-15T06:07:47.148Z,99415.31
2018-03-15T06:10:14.736Z,99417.39
2018-03-15T06:12:42.298Z,99424.62
2018-03-15T06:15:09.879Z,99424.83
2018-03-15T06:17:37.448Z,99424.17
2018-03-15T06:20:05.078Z,99432.33
2018-03-15T06:22:32.650Z,99433.54
2018-03-15T06:25:00.214Z,99442.59
2018-03-15T06:27:27.804Z,99447.75
2018-03-15T06:29:55.383Z,99452.42
2018-03-15T06:32:23.028Z,99447.11
2018-03-15T06:34:50.617Z,99452.12
2018-03-15T06:37:18.259Z,99450.97
2018-03-15T06:39:45.828Z,99457.64
2018-03-15T06:42:13.455Z,99455.19
2018-03-15T06:44:41.027Z,99456.70
2018-03-15T06:47:08.658Z,99456.65
2018-03-15T06:49:36.303Z,99458.46
2018-03-15T06:52:03.863Z,99460.97
2018-03-15T06:54:31.539Z,99463.41
2018-03-15T06:56:59.099Z,99464.46
2018-03-15T06:59:26.701Z,99460.83
2018-03-15T07:01:54.299Z,99462.78
2018-03-15T07:04:21.892Z,99469.81
2018-03-15T07:06:49.528Z,99470.39
2018-03-15T07:09:17.089Z,99466.50
2018-03-15T07:11:44.665Z,99463.11
2018-03-15T07:14:12.252Z,99469.19
2018-03-15T07:16:39.858Z,99462.27
2018-03-15T07:19:07.429Z,99463.42
2018-03-15T07:21:35.017Z,99465.56
2018-03-15T07:24:02.586Z,99459.61
2018-03-15T07:26:30.228Z,99467.36
2018-03-15T07:28:57.804Z,99461.05
2018-03-15T07:31:25.415Z,99469.30
2018-03-15T07:33:53.043Z,99457.22
2018-03-15T07:36:20.695Z,99464.74
2018-03-15T07:38:48.318Z,99468.94
2018-03-15T07:41:15.882Z,99472.99
2018-03-15T07:43:43.467Z,99479.78
2018-03-15T07:46:11.040Z,99472.84
2018-03-15T07:48:38.615Z,99469.70
2018-03-15T07:51:06.239Z,99471.92
2018-03-15T07:53:33.875Z,99470.81
2018-03-15T07:56:01.586Z,99472.41
2018-03-15T07:58:29.179Z,99463.06
2018-03-15T08:00:56.750Z,99456.77
2018-03-15T08:03:24.307Z,99456.40
2018-03-15T08:05:51.885Z,99457.31
2018-03-15T08:08:19.507Z,99453.97
2018-03-15T08:10:47.136Z,99457.47
2018-03-15T08:13:14.699Z,99448.19
2018-03-15T08:15:42.323Z,99456.46
2018-03-15T08:18:09.958Z,99455.80
2018-03-15T08:20:37.542Z,99445.25
2018-03-15T08:23:05.131Z,99448.70
2018-03-15T08:25:32.698Z,99451.26
2018-03-15T08:28:00.262Z,99450.78
2018-03-15T08:30:27.835Z,99446.55
2018-03-15T08:32:55.476Z,99449.28
2018-03-15T08:35:23.047Z,99445.55
2018-03-15T08:37:50.667Z,99445.36
2018-03-15T08:40:18.242Z,99446.23
2018-03-15T08:42:45.803Z,99442.75
2018-03-15T08:45:13.379Z,99446.68
2018-03-15T08:47:41.003Z,99439.27
2018-03-15T08:50:08.584Z,99442.68
2018-03-15T08:52:36.220Z,99440.88
2018-03-15T08:55:03.858Z,99445.81
2018-03-15T08:57:31.428Z,99442.09
2018-03-15T08:59:59.123Z,99442.98
2018-03-15T09:02:26.691Z,99442.32
2018-03-15T09:04:54.268Z,99447.66
2018-03-15T09:07:21.845Z,99445.95
2018-03-15T09:09:49.414Z,99442.11
2018-03-15T09:12:17.050Z,99437.34
2018-03-15T09:14:44.675Z,99446.91
2018-03-15T09:17:12.254Z,99440.42
2018-03-15T09:19:39.815Z,99442.80
2018-03-15T09:22:07.510Z,99446.91
2018-03-15T09:24:35.074Z,99444.16
2018-03-15T09:27:02.700Z,99445.81
2018-03-15T09:29:30.334Z,99440.31
2018-03-15T09:31:57.989Z,99441.55
2018-03-15T09:34:25.639Z,99441.79
2018-03-15T09:36:53.177Z,99443.82
2018-03-15T09:39:20.894Z,99443.49
2018-03-15T09:41:48.482Z,99452.50
2018-03-15T09:44:16.082Z,99451.56
2018-03-15T09:46:43.747Z,99454.38
2018-03-15T09:49:11.418Z,99451.63
2018-03-15T09:51:39.068Z,99459.22
2018-03-15T09:54:06.656Z,99457.38
2018-03-15T09:56:34.321Z,99463.07
2018-03-15T09:59:01.971Z,99465.06
2018-03-15T10:01:29.694Z,99453.70
2018-03-15T10:03:57.356Z,99454.48
2018-03-15T10:06:25.020Z,99452.70
2018-03-15T10:08:52.674Z,99461.59
2018-03-15T10:11:20.289Z,99469.70
2018-03-15T10:13:47.889Z,99462.73
2018-03-15T10:16:15.486Z,99455.84
2018-03-15T10:18:43.073Z,99455.20
2018-03-15T10:21:10.662Z,99457.97
2018-03-15T10:23:38.412Z,99456.16
2018-03-15T10:26:06.083Z,99450.25
2018-03-15T10:28:33.667Z,99453.98
2018-03-15T10:31:01.316Z,99458.08
2018-03-15T10:33:34.387Z,99447.78
2018-03-15T10:36:01.998Z,99450.48
2018-03-15T10:38:29.647Z,99437.08
2018-03-15T10:40:57.322Z,99440.14
2018-03-15T10:43:24.972Z,99433.86
2018-03-15T10:45:52.626Z,99429.63
2018-03-15T10:48:20.222Z,99426.23
2018-03-15T10:50:47.815Z,99419.33
2018-03-15T10:53:15.394Z,99417.19
2018-03-15T10:55:43.026Z,99410.46
2018-03-15T10:58:10.641Z,99409.17
2018-03-15T11:00:43.759Z,99404.33
2018-03-15T11:03:17.449Z,99405.64
2018-03-15T11:05:46.538Z,99406.97
2018-03-15T11:08:24.911Z,99398.86
2018-03-15T11:10:52.490Z,99398.84
2018-03-15T11:13:20.166Z,99387.98
2018-03-15T11:15:47.836Z,99391.71
2018-03-15T11:18:15.515Z,99384.27
2018-03-15T11:20:43.121Z,99382.92
2018-03-15T11:23:10.762Z,99376.39
2018-03-15T11:25:38.377Z,99378.80
2018-03-15T11:28:06.030Z,99370.88
2018-03-15T11:30:33.617Z,99368.83
2018-03-15T11:33:01.222Z,99360.03
2018-03-15T11:35:28.875Z,99360.42
2018-03-15T11:37:56.568Z,99353.69
2018-03-15T11:40:24.162Z,99348.78
2018-03-15T11:42:51.774Z,99354.27
2018-03-15T11:45:19.436Z,99357.48
2018-03-15T11:47:47.051Z,99353.80
2018-03-15T11:50:14.658Z,99354.39
2018-03-15T11:52:42.246Z,99344.66
2018-03-15T11:55:09.846Z,99347.00
2018-03-15T11:57:37.433Z,99347.34
2018-03-15T12:00:05.111Z,99346.41
2018-03-15T12:02:32.687Z,99355.45
2018-03-15T12:05:00.358Z,99347.83
2018-03-15T12:07:27.963Z,99345.49
2018-03-15T12:09:55.621Z,99348.81
2018-03-15T12:12:23.299Z,99345.36
2018-03-15T12:14:50.884Z,99339.55
2018-03-15T12:17:18.493Z,99343.19
2018-03-15T12:19:46.082Z,99342.95
2018-03-15T12:22:13.652Z,99345.45
2018-03-15T12:24:41.240Z,99346.67
2018-03-15T12:27:08.866Z,99348.66
2018-03-15T12:29:36.438Z,99341.09
2018-03-15T12:32:04.056Z,99341.49
2018-03-15T12:34:31.700Z,99331.30
2018-03-15T12:36:59.266Z,99328.99
2018-03-15T12:39:26.837Z,99331.42
2018-03-15T12:41:54.474Z,99327.93
2018-03-15T12:44:22.065Z,99330.71
2018-03-15T12:46:49.705Z,99326.23
2018-03-15T12:49:17.327Z,99330.95
2018-03-15T12:51:44.970Z,99329.02
2018-03-15T12:54:12.535Z,99334.23
2018-03-15T12:56:40.179Z,99327.53
2018-03-15T12:59:07.818Z,99326.64
2018-03-15T13:01:35.382Z,99329.66
2018-03-15T13:04:03.026Z,99325.33
2018-03-15T13:06:30.592Z,99315.56
2018-03-15T13:08:58.166Z,99322.95
2018-03-15T13:11:25.735Z,99311.35
2018-03-15T13:13:53.355Z,99319.05
2018-03-15T13:16:20.923Z,99312.34
2018-03-15T13:18:48.493Z,99317.23
2018-03-15T13:21:16.066Z,99322.51
2018-03-15T13:23:43.630Z,99316.94
2018-03-15T13:26:11.283Z,99311.02
2018-03-15T13:28:38.849Z,99305.38
2018-03-15T13:31:06.411Z,99302.48
2018-03-15T13:33:33.983Z,99308.09
2018-03-15T13:36:01.542Z,99309.00
2018-03-15T13:38:29.120Z,99309.72
2018-03-15T13:40:56.685Z,99307.77
2018-03-15T13:43:24.255Z,99314.13
2018-03-15T13:45:51.885Z,99310.31
2018-03-15T13:48:19.445Z,99305.88
2018-03-15T13:50:47.025Z,99308.37
2018-03-15T13:53:14.604Z,99303.59
2018-03-15T13:55:42.248Z,99303.59
2018-03-15T13:58:09.881Z,99306.47
2018-03-15T14:00:37.508Z,99307.63
2018-03-15T14:03:05.079Z,99304.10
2018-03-15T14:05:32.722Z,99304.72
2018-03-15T14:08:00.289Z,99306.09
2018-03-15T14:10:27.875Z,99305.34
2018-03-15T14:12:55.517Z,99297.06
2018-03-15T14:15:23.160Z,99298.30
2018-03-15T14:17:50.795Z,99293.50
2018-03-15T14:20:18.439Z,99299.04
2018-03-15T14:22:46.054Z,99300.68
2018-03-15T14:25:13.642Z,99297.27
2018-03-15T14:27:41.274Z,99297.78
2018-03-15T14:30:08.856Z,99293.05
2018-03-15T14:32:36.431Z,99304.02
2018-03-15T14:35:04.808Z,99298.70
2018-03-15T14:37:32.383Z,99298.33
2018-03-15T14:40:00.059Z,99296.91
2018-03-15T14:42:27.694Z,99300.22
2018-03-15T14:44:55.325Z,99298.63
2018-03-15T14:47:22.900Z,99299.76
2018-03-15T14:49:50.530Z,99302.70
2018-03-15T14:52:18.114Z,99304.64
2018-03-15T14:54:45.742Z,99302.98
2018-03-15T14:57:13.318Z,99311.44
2018-03-15T14:59:40.914Z,99305.55
2018-03-15T15:02:08.523Z,99302.46
2018-03-15T15:04:36.163Z,99304.94
2018-03-15T15:07:03.739Z,99309.22
2018-03-15T15:09:31.367Z,99312.80
2018-03-15T15:11:59.011Z,99312.09
2018-03-15T15:14:26.627Z,99313.02
2018-03-15T15:16:54.194Z,99311.31
2018-03-15T15:19:21.826Z,99320.89
2018-03-15T15:21:49.467Z,99321.83
2018-03-15T15:24:17.038Z,99326.45
2018-03-15T15:26:44.731Z,99326.20
2018-03-15T15:29:12.313Z,99324.19
2018-03-15T15:31:39.947Z,99322.02
2018-03-15T15:34:07.531Z,99329.41
2018-03-15T15:36:35.095Z,99327.83
2018-03-15T15:39:02.703Z,99329.87
2018-03-15T15:41:30.362Z,99334.00
2018-03-15T15:43:57.957Z,99335.59
2018-03-15T15:46:25.538Z,99341.10
2018-03-15T15:48:53.135Z,99339.52
2018-03-15T15:51:20.806Z,99333.48
2018-03-15T15:53:48.382Z,99337.79
2018-03-15T15:56:15.946Z,99334.06
2018-03-15T15:58:43.575Z,99336.64
2018-03-15T16:01:11.165Z,99344.27
2018-03-15T16:03:38.743Z,99351.73
2018-03-15T16:06:06.413Z,99354.34
2018-03-15T16:08:33.993Z,99354.45
2018-03-15T16:11:01.641Z,99356.62
2018-03-15T16:13:29.270Z,99353.31
2018-03-15T16:15:56.905Z,99350.89
2018-03-15T16:18:24.489Z,99350.77
2018-03-15T16:20:52.130Z,99360.98
2018-03-15T16:23:19.714Z,99362.90
2018-03-15T16:25:47.350Z,99371.67
2018-03-15T16:28:14.983Z,99365.67
2018-03-15T16:30:42.547Z,99361.67
2018-03-15T16:33:10.115Z,99371.13
2018-03-15T16:35:37.698Z,99367.83
2018-03-15T16:38:05.267Z,99366.63
2018-03-15T16:40:32.899Z,99365.91
2018-03-15T16:43:00.534Z,99363.30
2018-03-15T16:45:28.111Z,99371.44
2018-03-15T16:47:55.755Z,99367.48
2018-03-15T16:50:23.377Z,99362.40
2018-03-15T16:52:50.946Z,99361.21
2018-03-15T16:55:18.582Z,99367.11
2018-03-15T16:57:46.167Z,99366.06
2018-03-15T17:00:13.763Z,99368.44
2018-03-15T17:02:41.410Z,99367.40
2018-03-15T17:05:08.983Z,99369.32
2018-03-15T17:07:36.705Z,99378.23
2018-03-15T17:10:04.339Z,99375.83
2018-03-15T17:12:31.963Z,99391.52
2018-03-15T17:14:59.562Z,99393.48
2018-03-15T17:17:27.198Z,99400.58
2018-03-15T17:19:54.913Z,99402.61
2018-03-15T17:22:22.542Z,99399.19
2018-03-15T17:24:50.238Z,99401.30
2018-03-15T17:27:17.804Z,99405.85
2018-03-15T17:29:45.391Z,99413.25
2018-03-15T17:32:12.974Z,99411.16
2018-03-15T17:34:40.543Z,99413.34
2018-03-15T17:37:08.251Z,99409.59
2018-03-15T17:39:35.885Z,99410.72
2018-03-15T17:42:03.520Z,99409.82
2018-03-15T17:44:31.171Z,99414.23
2018-03-15T17:46:58.810Z,99422.58
2018-03-15T17:49:26.446Z,99421.41
2018-03-15T17:51:54.018Z,99423.14
2018-03-15T17:54:21.669Z,99422.80
2018-03-15T17:56:49.234Z,99423.89
2018-03-15T17:59:16.863Z,99421.22
2018-03-15T18:01:44.452Z,99429.34
2018-03-15T18:04:12.023Z,99429.84
2018-03-15T18:06:39.619Z,99432.45
2018-03-15T18:09:07.251Z,99428.92
2018-03-15T18:11:34.941Z,99438.89
2018-03-15T18:14:02.579Z,99439.31
2018-03-15T18:16:32.033Z,99442.39
2018-03-15T18:18:59.620Z,99436.91
2018-03-15T18:21:27.257Z,99444.95
2018-03-15T18:23:54.840Z,99447.23
2018-03-15T18:26:22.468Z,99449.64
2018-03-15T18:28:50.142Z,99457.73
2018-03-15T18:31:17.779Z,99457.02
2018-03-15T18:33:47.128Z,99457.76
2018-03-15T18:36:14.694Z,99454.23
2018-03-15T18:38:43.304Z,99461.00
2018-03-15T18:41:10.874Z,99464.02
2018-03-15T18:43:38.508Z,99469.88
2018-03-15T18:46:06.151Z,99469.88
2018-03-15T18:48:33.719Z,99465.52
2018-03-15T18:51:02.196Z,99465.19
2018-03-15T18:53:29.821Z,99473.38
2018-03-15T18:55:58.407Z,99467.25
2018-03-15T18:58:26.044Z,99474.97
2018-03-15T19:00:53.620Z,99470.22
2018-03-15T19:03:21.211Z,99471.89
2018-03-15T19:05:48.794Z,99476.03
2018-03-15T19:08:17.091Z,99477.66
2018-03-15T19:10:44.662Z,99478.45
2018-03-15T19:13:12.299Z,99491.78
2018-03-15T19:15:39.882Z,99488.52
2018-03-15T19:18:07.459Z,99488.27
2018-03-15T19:20:35.059Z,99487.50
2018-03-15T19:23:02.630Z,99487.69
2018-03-15T19:25:30.206Z,99487.44
2018-03-15T19:27:57.783Z,99492.00
2018-03-15T19:30:25.428Z,99500.30
2018-03-15T19:32:53.961Z,99496.48
2018-03-15T19:35:21.534Z,99508.14
2018-03-15T19:37:49.149Z,99506.59
2018-03-15T19:40:16.716Z,99499.19
2018-03-15T19:42:44.303Z,99489.94
2018-03-15T19:45:11.871Z,99487.02
2018-03-15T19:47:39.502Z,99479.19
2018-03-15T19:50:08.222Z,99477.02
2018-03-15T19:52:35.856Z,99476.72
2018-03-15T19:55:03.464Z,99480.86
2018-03-15T19:57:31.042Z,99488.22
2018-03-15T19:59:58.633Z,99482.07
2018-03-15T20:02:26.253Z,99475.09
2018-03-15T20:04:53.831Z,99464.17
2018-03-15T20:07:21.455Z,99464.03
2018-03-15T20:09:49.087Z,99467.77
2018-03-15T20:12:16.708Z,99459.14
2018-03-15T20:14:44.286Z,99463.03
2018-03-15T20:17:11.919Z,99459.02
2018-03-15T20:19:39.487Z,99460.44
2018-03-15T20:22:07.072Z,99452.80
2018-03-15T20:24:34.759Z,99449.75
2018-03-15T20:27:02.387Z,99448.45
2018-03-15T20:29:29.971Z,99446.91
2018-03-15T20:31:57.600Z,99451.84
2018-03-15T20:34:25.184Z,99454.55
2018-03-15T20:36:52.761Z,99451.44
2018-03-15T20:39:26.087Z,99443.49
2018-03-15T20:41:53.725Z,99449.87
2018-03-15T20:44:21.294Z,99445.23
2018-03-15T20:46:54.574Z,99443.34
2018-03-15T20:49:22.143Z,99435.65
2018-03-15T20:51:49.770Z,99435.68
2018-03-15T20:54:17.333Z,99428.78
2018-03-15T20:56:44.913Z,99435.39
2018-03-15T20:59:12.485Z,99435.89
2018-03-15T21:01:40.042Z,99441.12
2018-03-15T21:04:07.630Z,99448.55
2018-03-15T21:06:35.256Z,99446.14
2018-03-15T21:09:02.832Z,99444.08
2018-03-15T21:11:30.452Z,99434.64
2018-03-15T21:13:58.026Z,99448.87
2018-03-15T21:16:25.586Z,99442.56
2018-03-15T21:18:53.146Z,99452.80
2018-03-15T21:21:20.743Z,99448.30
2018-03-15T21:23:48.310Z,99449.47
2018-03-15T21:26:15.947Z,99450.91
2018-03-15T21:28:43.579Z,99448.53
2018-03-15T21:31:11.163Z,99447.50
2018-03-15T21:33:38.722Z,99456.16
2018-03-15T21:36:06.286Z,99450.22
2018-03-15T21:38:33.876Z,99449.86
2018-03-15T21:41:01.440Z,99454.25
2018-03-15T21:43:29.035Z,99448.28
2018-03-15T21:45:56.598Z,99455.78
2018-03-15T21:48:24.168Z,99452.40
2018-03-15T21:50:51.733Z,99450.83
2018-03-15T21:53:19.301Z,99452.09
2018-03-15T21:55:46.870Z,99458.53
2018-03-15T21:58:14.434Z,99445.27
2018-03-15T22:00:42.064Z,99449.03
2018-03-15T22:03:09.683Z,99455.74
2018-03-15T22:05:37.317Z,99465.63
2018-03-15T22:08:04.890Z,99451.14
2018-03-15T22:10:32.453Z,99450.91
2018-03-15T22:13:00.087Z,99449.16
2018-03-15T22:15:27.646Z,99448.48
2018-03-15T22:17:55.207Z,99434.71
2018-03-15T22:20:22.831Z,99444.48
2018-03-15T22:22:50.455Z,99438.91
2018-03-15T22:25:18.010Z,99439.77
2018-03-15T22:27:45.644Z,99439.42
2018-03-15T22:30:13.203Z,99436.97
2018-03-15T22:32:40.766Z,99436.22
2018-03-15T22:35:08.386Z,99429.99
2018-03-15T22:37:35.954Z,99430.28
2018-03-15T22:40:03.548Z,99424.05
2018-03-15T22:42:31.187Z,99425.06
2018-03-15T22:44:58.755Z,99420.88
2018-03-15T22:47:26.362Z,99413.85
2018-03-15T22:49:53.976Z,99414.81
2018-03-15T22:52:21.590Z,99414.02
2018-03-15T22:54:49.153Z,99411.83
2018-03-15T22:57:16.750Z,99412.47
2018-03-15T22:59:44.373Z,99406.14
2018-03-15T23:02:11.934Z,99406.13
2018-03-15T23:04:39.551Z,99410.12
2018-03-15T23:07:07.119Z,99411.80
2018-03-15T23:09:34.738Z,99407.89
2018-03-15T23:12:02.320Z,99418.44
2018-03-15T23:14:29.886Z,99413.84
2018-03-15T23:16:57.542Z,99414.26
2018-03-15T23:19:25.168Z,99410.35
2018-03-15T23:21:52.855Z,99412.04
2018-03-15T23:24:20.411Z,99417.95
2018-03-15T23:26:47.981Z,99419.64
2018-03-15T23:29:15.567Z,99411.38
2018-03-15T23:31:43.126Z,99415.70
2018-03-15T23:34:10.735Z,99414.36
2018-03-15T23:36:38.294Z,99417.39
2018-03-15T23:39:05.850Z,99414.42
2018-03-15T23:41:33.422Z,99413.31
2018-03-15T23:44:00.995Z,99403.61
2018-03-15T23:46:28.623Z,99397.64
2018-03-15T23:48:56.178Z,99400.84
2018-03-15T23:51:23.790Z,99399.30
2018-03-15T23:53:51.343Z,99398.14
2018-03-15T23:56:18.958Z,99390.42
2018-03-15T23:58:46.602Z,99386.09
